createdAt,value
2023-03-15T00:01:49.719Z,76.46
2023-03-15T00:04:16.356Z,76.54
2023-03-15T00:06:42.854Z,77.14
2023-03-15T00:09:09.362Z,76.65
2023-03-15T00:11:35.853Z,77.64
2023-03-15T00:14:02.602Z,77.51
2023-03-15T00:16:29.403Z,77.56
2023-03-15T00:18:56.227Z,77.81
2023-03-15T00:21:23.413Z,77.12
2023-03-15T00:23:50.012Z,77.86
2023-03-15T00:26:16.753Z,78.57
2023-03-15T00:28:43.567Z,78.11
2023-03-15T00:31:15.968Z,77.68
2023-03-15T00:33:42.772Z,77.49
2023-03-15T00:36:10.075Z,78.29
2023-03-15T00:38:38.592Z,76.98
2023-03-15T00:41:06.214Z,77.46
2023-03-15T00:43:33.672Z,77.08
2023-03-15T00:46:00.288Z,77.53
2023-03-15T00:48:26.877Z,77.94
2023-03-15T00:51:12.095Z,77.78
2023-03-15T00:53:40.837Z,76.46
2023-03-15T00:56:10.266Z,76.42
2023-03-15T00:58:37.076Z,78.61
2023-03-15T01:01:08.961Z,77.01
2023-03-15T01:03:38.902Z,78.40
2023-03-15T01:06:10.857Z,77.88
2023-03-15T01:08:37.523Z,77.62
2023-03-15T01:11:07.148Z,76.75
2023-03-15T01:13:34.431Z,77.82
2023-03-15T01:16:01.118Z,78.69
2023-03-15T01:18:27.582Z,78.59
2023-03-15T01:20:54.181Z,78.34
2023-03-15T01:23:20.841Z,79.75
2023-03-15T01:25:47.656Z,79.79
2023-03-15T01:28:14.281Z,78.56
2023-03-15T01:30:40.761Z,76.87
2023-03-15T01:33:07.273Z,79.73
2023-03-15T01:35:33.758Z,79.38
2023-03-15T01:38:00.246Z,76.48
2023-03-15T01:40:26.696Z,79.45
2023-03-15T01:43:11.735Z,82.41
2023-03-15T01:46:00.104Z,82.26
2023-03-15T01:48:30.098Z,81.87
2023-03-15T01:50:57.316Z,79.94
2023-03-15T01:53:26.446Z,82.93
2023-03-15T01:55:54.631Z,86.57
2023-03-15T01:58:22.697Z,84.53
2023-03-15T02:00:49.214Z,82.79
2023-03-15T02:03:22.256Z,81.86
2023-03-15T02:05:55.375Z,79.46
2023-03-15T02:08:23.111Z,79.35
2023-03-15T02:10:52.128Z,77.45
2023-03-15T02:13:24.631Z,76.98
2023-03-15T02:15:53.463Z,76.87
2023-03-15T02:18:20.815Z,77.26
2023-03-15T02:21:15.785Z,79.04
2023-03-15T02:23:44.232Z,79.18
2023-03-15T02:26:25.991Z,77.46
2023-03-15T02:28:53.926Z,77.43
2023-03-15T02:31:21.407Z,78.12
2023-03-15T02:33:51.630Z,79.48
2023-03-15T02:36:20.949Z,79.09
2023-03-15T02:38:48.525Z,77.96
2023-03-15T02:41:19.097Z,77.84
2023-03-15T02:43:47.264Z,78.26
2023-03-15T02:46:14.203Z,77.92
2023-03-15T02:48:41.714Z,77.61
2023-03-15T02:51:08.192Z,79.74
2023-03-15T02:53:34.684Z,78.47
2023-03-15T02:56:01.157Z,79.06
2023-03-15T02:58:27.662Z,77.91
2023-03-15T03:00:54.217Z,80.01
2023-03-15T03:03:21.132Z,79.02
2023-03-15T03:05:47.580Z,80.69
2023-03-15T03:08:16.477Z,80.56
2023-03-15T03:10:43.382Z,81.56
2023-03-15T03:13:09.912Z,81.32
2023-03-15T03:15:36.454Z,79.15
2023-03-15T03:18:03.171Z,78.59
2023-03-15T03:20:29.620Z,76.03
2023-03-15T03:22:56.122Z,76.23
2023-03-15T03:25:26.952Z,77.20
2023-03-15T03:27:57.128Z,78.42
2023-03-15T03:30:24.477Z,77.35
2023-03-15T03:32:51.348Z,76.26
2023-03-15T03:35:17.846Z,76.13
2023-03-15T03:37:44.323Z,76.96
2023-03-15T03:40:11.625Z,77.63
2023-03-15T03:42:38.193Z,77.27
2023-03-15T03:45:05.031Z,77.19
2023-03-15T03:47:31.564Z,76.83
2023-03-15T03:49:58.009Z,76.62
2023-03-15T03:52:24.600Z,75.93
2023-03-15T03:54:51.097Z,75.91
2023-03-15T03:57:17.629Z,76.09
2023-03-15T03:59:44.100Z,76.71
2023-03-15T04:02:10.749Z,77.01
2023-03-15T04:04:41.420Z,77.16
2023-03-15T04:07:08.284Z,76.66
2023-03-15T04:09:37.553Z,77.09
2023-03-15T04:12:05.475Z,76.58
2023-03-15T04:14:32.324Z,77.19
2023-03-15T04:16:59.111Z,76.20
2023-03-15T04:19:25.705Z,76.80
2023-03-15T04:21:52.496Z,76.99
2023-03-15T04:24:18.991Z,77.20
2023-03-15T04:26:45.449Z,76.90
2023-03-15T04:29:12.461Z,76.08
2023-03-15T04:31:39.007Z,77.03
2023-03-15T04:34:05.848Z,77.88
2023-03-15T04:36:32.466Z,76.43
2023-03-15T04:39:05.972Z,76.07
2023-03-15T04:41:34.820Z,77.06
2023-03-15T04:44:03.614Z,76.42
2023-03-15T04:46:32.274Z,76.49
2023-03-15T04:48:59.028Z,75.51
2023-03-15T04:51:25.502Z,78.34
2023-03-15T04:53:52.085Z,77.53
2023-03-15T04:56:18.663Z,77.42
2023-03-15T04:58:45.151Z,77.54
2023-03-15T05:01:12.009Z,76.76
2023-03-15T05:03:38.613Z,76.96
2023-03-15T05:06:08.228Z,77.74
2023-03-15T05:08:36.334Z,76.65
2023-03-15T05:11:04.184Z,76.60
2023-03-15T05:13:30.710Z,77.59
2023-03-15T05:15:57.298Z,78.76
2023-03-15T05:18:24.252Z,78.76
2023-03-15T05:20:51.034Z,78.65
2023-03-15T05:23:17.500Z,79.13
2023-03-15T05:25:43.975Z,77.54
2023-03-15T05:28:10.438Z,78.56
2023-03-15T05:30:36.883Z,77.96
2023-03-15T05:33:05.174Z,78.50
2023-03-15T05:35:31.673Z,78.92
2023-03-15T05:37:58.189Z,79.03
2023-03-15T05:40:24.697Z,78.28
2023-03-15T05:42:51.146Z,77.97
2023-03-15T05:45:17.720Z,78.37
2023-03-15T05:47:44.188Z,78.18
2023-03-15T05:50:11.080Z,78.08
2023-03-15T05:52:37.584Z,78.13
2023-03-15T05:55:04.423Z,79.12
2023-03-15T05:57:31.411Z,79.56
2023-03-15T05:59:57.968Z,80.50
2023-03-15T06:02:24.725Z,78.89
2023-03-15T06:04:51.331Z,80.01
2023-03-15T06:07:17.896Z,79.28
2023-03-15T06:09:44.413Z,79.97
2023-03-15T06:12:10.960Z,79.30
2023-03-15T06:14:37.485Z,81.73
2023-03-15T06:17:03.969Z,83.94
2023-03-15T06:19:30.444Z,81.99
2023-03-15T06:21:56.917Z,82.36
2023-03-15T06:24:25.101Z,80.14
2023-03-15T06:26:51.576Z,80.63
2023-03-15T06:29:18.104Z,79.71
2023-03-15T06:31:44.606Z,80.77
2023-03-15T06:34:11.920Z,79.84
2023-03-15T06:36:38.754Z,79.41
2023-03-15T06:39:05.794Z,79.72
2023-03-15T06:41:32.793Z,79.85
2023-03-15T06:43:59.296Z,79.15
2023-03-15T06:46:25.830Z,79.73
2023-03-15T06:48:52.340Z,80.58
2023-03-15T06:51:18.801Z,80.14
2023-03-15T06:53:45.426Z,80.60
2023-03-15T06:56:12.057Z,79.33
2023-03-15T06:58:38.555Z,78.23
2023-03-15T07:01:05.181Z,79.38
2023-03-15T07:03:31.729Z,79.58
2023-03-15T07:05:58.176Z,79.80
2023-03-15T07:08:25.555Z,80.53
2023-03-15T07:10:52.270Z,79.54
2023-03-15T07:13:19.476Z,79.56
2023-03-15T07:15:47.730Z,80.79
2023-03-15T07:18:14.267Z,81.83
2023-03-15T07:20:40.713Z,80.87
2023-03-15T07:23:07.196Z,81.38
2023-03-15T07:25:44.958Z,82.14
2023-03-15T07:28:18.774Z,82.35
2023-03-15T07:30:52.993Z,84.37
2023-03-15T07:33:22.472Z,82.75
2023-03-15T07:35:53.566Z,83.99
2023-03-15T07:38:25.104Z,83.92
2023-03-15T07:40:51.969Z,83.76
2023-03-15T07:43:18.875Z,82.14
2023-03-15T07:45:45.375Z,80.57
2023-03-15T07:48:11.815Z,79.60
2023-03-15T07:50:38.660Z,79.27
2023-03-15T07:53:06.209Z,79.36
2023-03-15T07:55:34.116Z,79.03
2023-03-15T07:58:00.975Z,80.05
2023-03-15T08:00:28.063Z,80.31
2023-03-15T08:02:54.688Z,79.50
2023-03-15T08:05:22.073Z,79.64
2023-03-15T08:07:49.116Z,78.45
2023-03-15T08:10:16.432Z,79.19
2023-03-15T08:12:43.168Z,78.46
2023-03-15T08:15:14.264Z,78.21
2023-03-15T08:17:41.800Z,78.75
2023-03-15T08:20:14.921Z,78.98
2023-03-15T08:22:44.815Z,79.88
2023-03-15T08:25:13.348Z,82.21
2023-03-15T08:27:39.956Z,80.35
2023-03-15T08:30:07.013Z,80.05
2023-03-15T08:32:33.482Z,79.76
2023-03-15T08:35:00.179Z,80.20
2023-03-15T08:37:26.695Z,81.68
2023-03-15T08:40:00.917Z,81.50
2023-03-15T08:42:27.940Z,81.70
2023-03-15T08:44:54.454Z,81.48
2023-03-15T08:47:20.883Z,80.52
2023-03-15T08:49:47.340Z,80.32
2023-03-15T08:52:13.828Z,80.95
2023-03-15T08:54:40.576Z,80.83
2023-03-15T08:57:07.057Z,80.39
2023-03-15T08:59:33.522Z,79.33
2023-03-15T09:02:01.069Z,79.90
2023-03-15T09:04:27.792Z,79.61
2023-03-15T09:06:54.410Z,80.59
2023-03-15T09:09:20.893Z,80.74
2023-03-15T09:11:47.338Z,81.13
2023-03-15T09:14:13.808Z,81.61
2023-03-15T09:16:40.441Z,80.09
2023-03-15T09:19:06.967Z,82.17
2023-03-15T09:21:33.562Z,80.80
2023-03-15T09:24:00.134Z,80.47
2023-03-15T09:26:26.640Z,80.38
2023-03-15T09:28:53.142Z,79.73
2023-03-15T09:31:19.668Z,78.68
2023-03-15T09:33:46.646Z,79.13
2023-03-15T09:36:13.282Z,78.18
2023-03-15T09:38:41.989Z,78.37
2023-03-15T09:41:18.321Z,77.37
2023-03-15T09:44:05.591Z,78.19
2023-03-15T09:46:42.649Z,78.80
2023-03-15T09:49:14.338Z,78.99
2023-03-15T09:51:49.191Z,76.87
2023-03-15T09:54:19.392Z,76.22
2023-03-15T09:56:55.258Z,76.66
2023-03-15T09:59:24.706Z,75.03
2023-03-15T10:01:53.362Z,76.13
2023-03-15T10:04:28.187Z,75.63
2023-03-15T10:06:57.598Z,76.68
2023-03-15T10:09:26.731Z,76.95
2023-03-15T10:11:56.263Z,76.53
2023-03-15T10:14:44.849Z,77.51
2023-03-15T10:17:13.483Z,77.05
2023-03-15T10:19:51.942Z,77.45
2023-03-15T10:22:38.911Z,74.64
2023-03-15T10:25:05.472Z,75.53
2023-03-15T10:27:35.252Z,74.10
2023-03-15T10:30:02.581Z,73.46
2023-03-15T10:32:31.722Z,71.01
2023-03-15T10:34:58.874Z,70.73
2023-03-15T10:37:25.913Z,70.04
2023-03-15T10:39:58.550Z,69.65
2023-03-15T10:42:30.482Z,68.94
2023-03-15T10:44:57.628Z,66.49
2023-03-15T10:47:25.215Z,66.96
2023-03-15T10:49:58.841Z,67.75
2023-03-15T10:52:28.495Z,65.69
2023-03-15T10:54:58.744Z,65.92
2023-03-15T10:57:35.269Z,66.06
2023-03-15T11:00:23.867Z,65.35
2023-03-15T11:02:52.166Z,65.09
2023-03-15T11:05:19.774Z,63.02
2023-03-15T11:07:59.876Z,63.21
2023-03-15T11:10:28.957Z,62.83
2023-03-15T11:13:12.208Z,62.25
2023-03-15T11:15:41.175Z,64.65
2023-03-15T11:18:17.707Z,66.80
2023-03-15T11:20:45.431Z,71.51
2023-03-15T11:23:18.679Z,74.30
2023-03-15T11:25:45.226Z,76.12
2023-03-15T11:28:32.415Z,76.41
2023-03-15T11:31:04.641Z,76.60
2023-03-15T11:34:09.487Z,77.27
2023-03-15T11:36:39.307Z,76.29
2023-03-15T11:39:06.375Z,74.34
2023-03-15T11:41:43.867Z,73.73
2023-03-15T11:44:16.497Z,73.10
2023-03-15T11:46:46.448Z,72.73
2023-03-15T11:49:54.549Z,71.09
2023-03-15T11:52:23.894Z,68.70
2023-03-15T11:54:52.169Z,67.82
2023-03-15T11:57:38.127Z,67.12
2023-03-15T12:00:21.744Z,68.56
2023-03-15T12:02:49.662Z,68.76
2023-03-15T12:05:42.410Z,66.06
2023-03-15T12:08:25.260Z,67.86
2023-03-15T12:10:52.077Z,67.43
2023-03-15T12:13:32.071Z,67.50
2023-03-15T12:15:59.255Z,67.66
2023-03-15T12:18:29.848Z,67.98
2023-03-15T12:21:19.735Z,69.60
2023-03-15T12:23:58.876Z,70.16
2023-03-15T12:26:31.576Z,68.77
2023-03-15T12:29:01.090Z,65.69
2023-03-15T12:31:43.213Z,64.98
2023-03-15T12:34:15.770Z,65.20
2023-03-15T12:36:47.216Z,67.43
2023-03-15T12:39:16.827Z,65.23
2023-03-15T12:41:46.522Z,67.96
2023-03-15T12:44:22.296Z,68.33
2023-03-15T12:46:48.732Z,69.73
2023-03-15T12:49:24.451Z,70.24
2023-03-15T12:51:59.174Z,70.41
2023-03-15T12:54:31.889Z,67.96
2023-03-15T12:57:00.727Z,66.04
2023-03-15T12:59:36.344Z,67.66
2023-03-15T13:02:16.968Z,77.20
2023-03-15T13:04:43.459Z,81.05
2023-03-15T13:07:37.010Z,80.28
2023-03-15T13:10:24.720Z,80.40
2023-03-15T13:13:23.440Z,79.86
2023-03-15T13:16:02.199Z,81.40
2023-03-15T13:18:30.314Z,82.00
2023-03-15T13:21:17.888Z,79.93
2023-03-15T13:23:50.284Z,77.61
2023-03-15T13:26:29.223Z,77.37
2023-03-15T13:29:02.574Z,76.26
2023-03-15T13:31:31.577Z,75.87
2023-03-15T13:34:11.462Z,74.89
2023-03-15T13:36:48.177Z,72.40
2023-03-15T13:39:24.076Z,71.52
2023-03-15T13:42:06.123Z,70.82
2023-03-15T13:44:33.621Z,71.28
2023-03-15T13:47:00.669Z,71.93
2023-03-15T13:49:32.569Z,72.09
2023-03-15T13:51:59.429Z,71.05
2023-03-15T13:54:29.034Z,67.69
2023-03-15T13:56:55.677Z,68.22
2023-03-15T13:59:32.604Z,66.85
2023-03-15T14:01:59.397Z,66.59
2023-03-15T14:04:26.246Z,65.93
2023-03-15T14:07:04.307Z,65.45
2023-03-15T14:09:30.907Z,66.30
2023-03-15T14:12:06.058Z,65.59
2023-03-15T14:14:37.512Z,66.54
2023-03-15T14:17:09.037Z,66.53
2023-03-15T14:19:35.932Z,67.08
2023-03-15T14:22:15.706Z,66.28
2023-03-15T14:24:43.870Z,64.28
2023-03-15T14:27:25.797Z,66.24
2023-03-15T14:29:55.149Z,65.22
2023-03-15T14:32:31.022Z,64.13
2023-03-15T14:35:05.609Z,63.72
2023-03-15T14:37:35.458Z,61.40
2023-03-15T14:40:21.353Z,62.51
2023-03-15T14:42:49.268Z,61.71
2023-03-15T14:45:17.664Z,59.25
2023-03-15T14:47:56.336Z,60.06
2023-03-15T14:50:27.259Z,60.86
2023-03-15T14:52:54.370Z,60.94
2023-03-15T14:55:28.263Z,61.77
2023-03-15T14:57:54.851Z,62.42
2023-03-15T15:00:21.702Z,61.77
2023-03-15T15:02:54.811Z,62.56
2023-03-15T15:05:29.463Z,62.35
2023-03-15T15:08:04.882Z,61.90
2023-03-15T15:10:32.485Z,60.47
2023-03-15T15:13:05.875Z,60.55
2023-03-15T15:15:47.355Z,61.48
2023-03-15T15:18:20.690Z,60.93
2023-03-15T15:20:47.434Z,61.50
2023-03-15T15:23:19.055Z,59.88
2023-03-15T15:25:46.835Z,60.22
2023-03-15T15:28:27.336Z,59.67
2023-03-15T15:31:00.625Z,60.99
2023-03-15T15:33:28.155Z,59.67
2023-03-15T15:35:56.135Z,60.86
2023-03-15T15:38:24.949Z,60.12
2023-03-15T15:40:51.467Z,59.39
2023-03-15T15:43:19.019Z,60.09
2023-03-15T15:45:45.510Z,58.60
2023-03-15T15:48:11.959Z,59.35
2023-03-15T15:50:38.516Z,60.33
2023-03-15T15:53:06.018Z,60.61
2023-03-15T15:55:36.672Z,59.88
2023-03-15T15:58:03.944Z,59.94
2023-03-15T16:00:30.848Z,58.41
2023-03-15T16:02:58.302Z,57.33
2023-03-15T16:05:27.049Z,57.84
2023-03-15T16:07:54.898Z,58.44
2023-03-15T16:10:26.712Z,57.32
2023-03-15T16:12:54.721Z,57.10
2023-03-15T16:15:21.505Z,56.96
2023-03-15T16:17:48.069Z,55.67
2023-03-15T16:20:16.644Z,55.86
2023-03-15T16:22:46.257Z,55.17
2023-03-15T16:25:25.472Z,56.15
2023-03-15T16:27:53.540Z,55.61
2023-03-15T16:30:26.104Z,55.27
2023-03-15T16:32:55.961Z,55.78
2023-03-15T16:35:40.734Z,56.63
2023-03-15T16:38:13.619Z,54.96
2023-03-15T16:40:41.791Z,54.83
2023-03-15T16:43:11.119Z,55.27
2023-03-15T16:45:37.650Z,56.07
2023-03-15T16:48:04.763Z,57.70
2023-03-15T16:50:32.476Z,56.93
2023-03-15T16:53:01.611Z,57.06
2023-03-15T16:55:30.000Z,56.48
2023-03-15T16:57:57.220Z,57.75
2023-03-15T17:00:24.638Z,59.50
2023-03-15T17:02:52.262Z,58.69
2023-03-15T17:05:21.665Z,58.87
2023-03-15T17:07:49.310Z,60.70
2023-03-15T17:10:27.579Z,60.49
2023-03-15T17:12:55.299Z,60.28
2023-03-15T17:15:24.510Z,60.46
2023-03-15T17:17:51.892Z,60.28
2023-03-15T17:20:21.871Z,61.75
2023-03-15T17:22:49.558Z,61.38
2023-03-15T17:25:17.327Z,61.97
2023-03-15T17:27:44.897Z,61.75
2023-03-15T17:30:19.046Z,61.70
2023-03-15T17:32:46.567Z,60.98
2023-03-15T17:35:14.011Z,61.25
2023-03-15T17:37:44.658Z,61.25
2023-03-15T17:40:22.146Z,61.44
2023-03-15T17:42:49.510Z,60.16
2023-03-15T17:45:21.381Z,60.94
2023-03-15T17:47:51.747Z,62.63
2023-03-15T17:50:21.014Z,62.36
2023-03-15T17:52:55.936Z,61.83
2023-03-15T17:55:24.748Z,62.47
2023-03-15T17:57:55.203Z,63.71
2023-03-15T18:00:22.802Z,64.74
2023-03-15T18:02:55.267Z,63.77
2023-03-15T18:05:25.299Z,62.72
2023-03-15T18:07:58.691Z,63.22
2023-03-15T18:10:28.145Z,63.09
2023-03-15T18:12:54.732Z,64.20
2023-03-15T18:15:23.554Z,63.84
2023-03-15T18:17:51.220Z,63.76
2023-03-15T18:20:18.615Z,64.40
2023-03-15T18:22:45.418Z,64.84
2023-03-15T18:25:24.474Z,66.65
2023-03-15T18:27:52.538Z,66.04
2023-03-15T18:30:22.371Z,64.28
2023-03-15T18:32:49.973Z,63.92
2023-03-15T18:35:19.374Z,64.43
2023-03-15T18:37:46.346Z,65.26
2023-03-15T18:40:17.576Z,65.04
2023-03-15T18:42:44.883Z,63.78
2023-03-15T18:45:20.834Z,64.77
2023-03-15T18:47:48.010Z,64.28
2023-03-15T18:50:15.697Z,64.92
2023-03-15T18:52:42.646Z,65.28
2023-03-15T18:55:12.515Z,65.48
2023-03-15T18:57:42.924Z,64.57
2023-03-15T19:00:13.666Z,65.19
2023-03-15T19:02:45.594Z,64.99
2023-03-15T19:05:13.645Z,64.84
2023-03-15T19:07:42.330Z,65.30
2023-03-15T19:10:13.318Z,64.82
2023-03-15T19:12:41.037Z,64.82
2023-03-15T19:15:12.325Z,65.02
2023-03-15T19:17:39.092Z,67.05
2023-03-15T19:20:07.641Z,64.09
2023-03-15T19:22:35.338Z,64.96
2023-03-15T19:25:01.833Z,65.22
2023-03-15T19:27:28.335Z,64.46
2023-03-15T19:29:54.809Z,66.25
2023-03-15T19:32:21.267Z,65.33
2023-03-15T19:34:48.143Z,64.90
2023-03-15T19:37:14.607Z,64.50
2023-03-15T19:39:41.125Z,65.18
2023-03-15T19:42:08.606Z,64.92
2023-03-15T19:44:36.188Z,66.21
2023-03-15T19:47:02.829Z,65.77
2023-03-15T19:49:29.297Z,65.17
2023-03-15T19:51:55.760Z,65.47
2023-03-15T19:54:22.381Z,65.04
2023-03-15T19:56:49.510Z,63.97
2023-03-15T19:59:16.034Z,64.75
2023-03-15T20:01:42.604Z,65.63
2023-03-15T20:04:09.245Z,65.59
2023-03-15T20:06:35.798Z,67.02
2023-03-15T20:09:05.979Z,65.19
2023-03-15T20:11:32.766Z,66.59
2023-03-15T20:13:59.312Z,66.17
2023-03-15T20:16:26.153Z,66.08
2023-03-15T20:18:53.665Z,65.78
2023-03-15T20:21:20.178Z,65.73
2023-03-15T20:23:48.177Z,66.12
2023-03-15T20:26:17.593Z,66.46
2023-03-15T20:28:47.073Z,66.15
2023-03-15T20:31:17.054Z,67.36
2023-03-15T20:33:45.480Z,66.69
2023-03-15T20:36:11.973Z,66.77
2023-03-15T20:38:39.103Z,66.87
2023-03-15T20:41:06.694Z,66.42
2023-03-15T20:43:33.743Z,67.47
2023-03-15T20:46:02.369Z,66.96
2023-03-15T20:48:30.920Z,65.96
2023-03-15T20:50:58.537Z,66.17
2023-03-15T20:53:26.706Z,66.53
2023-03-15T20:55:53.174Z,66.17
2023-03-15T20:58:19.703Z,66.70
2023-03-15T21:00:49.225Z,66.38
2023-03-15T21:03:16.829Z,65.75
2023-03-15T21:05:45.431Z,66.11
2023-03-15T21:08:12.618Z,67.31
2023-03-15T21:10:39.549Z,67.82
2023-03-15T21:13:10.287Z,68.09
2023-03-15T21:15:46.060Z,66.98
2023-03-15T21:18:16.964Z,66.33
2023-03-15T21:20:43.922Z,66.25
2023-03-15T21:23:11.276Z,67.81
2023-03-15T21:25:38.549Z,67.07
2023-03-15T21:28:05.270Z,68.18
2023-03-15T21:30:33.075Z,67.77
2023-03-15T21:33:00.066Z,67.76
2023-03-15T21:35:26.678Z,68.35
2023-03-15T21:37:53.243Z,68.79
2023-03-15T21:40:19.757Z,68.00
2023-03-15T21:42:47.773Z,68.27
2023-03-15T21:45:14.840Z,68.52
2023-03-15T21:47:41.720Z,67.42
2023-03-15T21:50:12.686Z,68.10
2023-03-15T21:52:39.416Z,67.01
2023-03-15T21:55:07.732Z,67.25
2023-03-15T21:57:34.668Z,66.73
2023-03-15T22:00:01.302Z,66.79
2023-03-15T22:02:27.875Z,66.96
2023-03-15T22:04:54.584Z,66.90
2023-03-15T22:07:21.326Z,66.91
2023-03-15T22:09:47.855Z,67.93
2023-03-15T22:12:15.574Z,67.58
2023-03-15T22:14:42.196Z,68.19
2023-03-15T22:17:08.890Z,67.79
2023-03-15T22:19:35.860Z,67.82
2023-03-15T22:22:02.473Z,67.15
2023-03-15T22:24:29.195Z,68.17
2023-03-15T22:26:56.227Z,67.22
2023-03-15T22:29:22.668Z,67.06
2023-03-15T22:31:49.137Z,66.52
2023-03-15T22:34:16.510Z,67.22
2023-03-15T22:36:43.140Z,66.41
2023-03-15T22:39:10.579Z,66.49
2023-03-15T22:41:37.434Z,66.30
2023-03-15T22:44:04.372Z,65.74
2023-03-15T22:46:34.922Z,65.97
2023-03-15T22:49:01.891Z,66.06
2023-03-15T22:51:28.406Z,66.08
2023-03-15T22:53:54.916Z,66.77
2023-03-15T22:56:21.789Z,67.42
2023-03-15T22:58:49.646Z,67.66
2023-03-15T23:01:16.494Z,67.43
2023-03-15T23:03:43.346Z,67.18
2023-03-15T23:06:10.167Z,67.06
2023-03-15T23:08:37.165Z,67.91
2023-03-15T23:11:04.054Z,68.03
2023-03-15T23:13:31.546Z,68.86
2023-03-15T23:15:58.144Z,68.57
2023-03-15T23:18:24.986Z,68.50
2023-03-15T23:20:51.497Z,68.52
2023-03-15T23:23:17.931Z,68.42
2023-03-15T23:25:45.962Z,69.44
2023-03-15T23:28:13.856Z,69.30
2023-03-15T23:30:40.975Z,69.38
2023-03-15T23:33:08.444Z,68.56
2023-03-15T23:35:35.306Z,69.38
2023-03-15T23:38:02.207Z,68.88
2023-03-15T23:40:30.085Z,69.13
2023-03-15T23:42:59.220Z,68.69
2023-03-15T23:45:27.767Z,69.04
2023-03-15T23:47:54.234Z,70.05
2023-03-15T23:50:20.999Z,70.51
2023-03-15T23:52:47.439Z,69.84
2023-03-15T23:55:13.902Z,70.24
2023-03-15T23:57:40.410Z,70.23
